Time;durP1;ratioP1;P1;durP2;ratioP2;P2;SDS_P1;SDS_P2;PMS_P1;PMS_P2;Temp;Humidity;BMP_temperature;BMP_pressure;BME280_temperature;BME280_humidity;BME280_pressure;Samples;Min_cycle;Max_cycle;Signal;HPM_P1;HPM_P2
2023/07/14 00:01:36;;;;;;;;;;;;;;;;;;5066182;28;20020;-69
2023/07/14 00:04:03;;;;;;;;;;;;;;;;;;5063743;28;19971;-69
2023/07/14 00:06:30;;;;;;;;;;;;;;;;;;5066400;28;20007;-69
2023/07/14 00:08:57;;;;;;;;;;;;;;;;;;5073259;28;19931;-69
2023/07/14 00:11:24;;;;;;;;;;;;;;;;;;5073290;28;19924;-68
2023/07/14 00:13:51;;;;;;;;;;;;;;;;;;5078305;28;20019;-68
2023/07/14 00:16:18;;;;;;;;;;;;;;;;;;5066251;28;20007;-68
2023/07/14 00:18:45;;;;;;;;;;;;;;;;;;5072566;28;20486;-69
2023/07/14 00:21:12;;;;;;;;;;;;;;;;;;5073038;28;20351;-69
2023/07/14 00:23:39;;;;;;;;;;;;;;;;;;5071103;28;19978;-68
2023/07/14 00:26:05;;;;;;;;;;;;;;;;;;5069772;28;19970;-69
2023/07/14 00:28:33;;;;;;;;;;;;;;;;;;5065738;28;20049;-69
2023/07/14 00:31:00;;;;;;;;;;;;;;;;;;5073454;28;20035;-69
2023/07/14 00:33:27;;;;;;;;;;;;;;;;;;5072348;28;20011;-68
2023/07/14 00:35:54;;;;;;;;;;;;;;;;;;5071199;28;19978;-69
2023/07/14 00:38:21;;;;;;;;;;;;;;;;;;5070740;28;20393;-69
2023/07/14 00:40:48;;;;;;;;;;;;;;;;;;5073605;28;20336;-68
2023/07/14 00:43:15;;;;;;;;;;;;;;;;;;5074112;28;19929;-68
2023/07/14 00:45:42;;;;;;;;;;;;;;;;;;5077073;28;20387;-69
2023/07/14 00:48:09;;;;;;;;;;;;;;;;;;5077607;28;19932;-69
2023/07/14 00:50:36;;;;;;;;;;;;;;;;;;5074070;28;20027;-69
2023/07/14 00:53:03;;;;;;;;;;;;;;;;;;5067504;28;20012;-69
2023/07/14 00:55:30;;;;;;;;;;;;;;;;;;5066358;28;19924;-68
2023/07/14 00:57:57;;;;;;;;;;;;;;;;;;5073056;28;19925;-68
2023/07/14 01:00:24;;;;;;;;;;;;;;;;;;5068879;28;20368;-68
2023/07/14 01:02:51;;;;;;;;;;;;;;;;;;5065546;28;20041;-68
2023/07/14 01:05:18;;;;;;;;;;;;;;;;;;5064677;28;19972;-69
2023/07/14 01:07:45;;;;;;;;;;;;;;;;;;5055419;28;20039;-68
2023/07/14 01:10:13;;;;;;;;;;;;;;;;;;5067781;28;20007;-70
2023/07/14 01:12:40;;;;;;;;;;;;;;;;;;5069135;28;19932;-68
2023/07/14 01:15:07;;;;;;;;;;;;;;;;;;5068327;28;20010;-68
2023/07/14 01:17:34;;;;;;;;;;;;;;;;;;5062997;28;19975;-68
2023/07/14 01:20:01;;;;;;;;;;;;;;;;;;5067350;28;20014;-69
2023/07/14 01:22:28;;;;;;;;;;;;;;;;;;5068716;28;19925;-69
2023/07/14 01:24:55;;;;;;;;;;;;;;;;;;5070740;28;19954;-68
2023/07/14 01:27:24;;;;;;;;;;;;;;;;;;5067529;28;19977;-69
2023/07/14 01:29:51;;;;;;;;;;;;;;;;;;5060167;28;20012;-68
2023/07/14 01:32:18;;;;;;;;;;;;;;;;;;5067662;28;19971;-69
2023/07/14 01:34:45;;;;;;;;;;;;;;;;;;5067324;28;20015;-69
2023/07/14 01:37:12;;;;;;;;;;;;;;;;;;5065673;28;20367;-69
2023/07/14 01:39:39;;;;;;;;;;;;;;;;;;5065825;28;20015;-69
2023/07/14 01:42:06;;;;;;;;;;;;;;;;;;5065753;28;19924;-68
2023/07/14 01:44:33;;;;;;;;;;;;;;;;;;5061965;28;19925;-69
2023/07/14 01:47:00;;;;;;;;;;;;;;;;;;5066734;28;20007;-68
2023/07/14 01:49:27;;;;;;;;;;;;;;;;;;5071471;28;19938;-69
2023/07/14 01:51:54;;;;;;;;;;;;;;;;;;5068940;28;19931;-68
2023/07/14 01:54:21;;;;;;;;;;;;;;;;;;5069234;28;19924;-69
2023/07/14 01:56:48;;;;;;;;;;;;;;;;;;5071435;28;19948;-69
2023/07/14 01:59:15;;;;;;;;;;;;;;;;;;5067088;28;19931;-69
2023/07/14 02:01:44;;;;;;;;;;;;;;;;;;5070174;28;19928;-69
2023/07/14 02:04:10;;;;;;;;;;;;;;;;;;5069397;28;19931;-69
2023/07/14 02:06:37;;;;;;;;;;;;;;;;;;5067822;28;19963;-69
2023/07/14 02:09:04;;;;;;;;;;;;;;;;;;5071769;28;20018;-69
2023/07/14 02:11:31;;;;;;;;;;;;;;;;;;5071245;28;20287;-69
2023/07/14 02:13:59;;;;;;;;;;;;;;;;;;5062649;28;19964;-69
2023/07/14 02:16:26;;;;;;;;;;;;;;;;;;5070810;28;19924;-70
2023/07/14 02:18:55;;;;;;;;;;;;;;;;;;5069368;28;19925;-69
2023/07/14 02:21:22;;;;;;;;;;;;;;;;;;5065290;28;20378;-68
2023/07/14 02:23:49;;;;;;;;;;;;;;;;;;5070829;28;20394;-68
2023/07/14 02:26:16;;;;;;;;;;;;;;;;;;5070668;28;19924;-68
2023/07/14 02:28:43;;;;;;;;;;;;;;;;;;5067421;28;20026;-68
2023/07/14 02:31:10;;;;;;;;;;;;;;;;;;5069256;28;20038;-68
2023/07/14 02:33:37;;;;;;;;;;;;;;;;;;5070386;28;20023;-68
2023/07/14 02:36:04;;;;;;;;;;;;;;;;;;5067298;28;19935;-69
2023/07/14 02:38:31;;;;;;;;;;;;;;;;;;5068604;28;19928;-69
2023/07/14 02:40:58;;;;;;;;;;;;;;;;;;5069914;28;20023;-68
2023/07/14 02:43:25;;;;;;;;;;;;;;;;;;5069254;28;19974;-68
2023/07/14 02:45:52;;;;;;;;;;;;;;;;;;5072272;28;19935;-68
2023/07/14 02:48:19;;;;;;;;;;;;;;;;;;5066671;28;19925;-69
2023/07/14 02:50:46;;;;;;;;;;;;;;;;;;5071493;28;19928;-68
2023/07/14 02:53:14;;;;;;;;;;;;;;;;;;5058551;28;19979;-68
2023/07/14 02:55:41;;;;;;;;;;;;;;;;;;5067359;28;19925;-68
2023/07/14 02:58:08;;;;;;;;;;;;;;;;;;5070955;28;20334;-69
2023/07/14 03:00:35;;;;;;;;;;;;;;;;;;5069249;28;20015;-68
2023/07/14 03:03:02;;;;;;;;;;;;;;;;;;5076144;28;20290;-68
2023/07/14 03:05:29;;;;;;;;;;;;;;;;;;5082999;28;20028;-68
2023/07/14 03:07:56;;;;;;;;;;;;;;;;;;5060508;28;19925;-68
2023/07/14 03:10:23;;;;;;;;;;;;;;;;;;5052347;28;19960;-69
2023/07/14 03:12:50;;;;;;;;;;;;;;;;;;5060590;28;19937;-69
2023/07/14 03:15:17;;;;;;;;;;;;;;;;;;5058898;28;19982;-69
2023/07/14 03:17:44;;;;;;;;;;;;;;;;;;5062948;28;20007;-68
2023/07/14 03:20:11;;;;;;;;;;;;;;;;;;5071883;28;20003;-69
2023/07/14 03:22:38;;;;;;;;;;;;;;;;;;5068172;28;19924;-69
2023/07/14 03:25:05;;;;;;;;;;;;;;;;;;5070815;28;19968;-69
2023/07/14 03:27:32;;;;;;;;;;;;;;;;;;5068684;28;19924;-69
2023/07/14 03:29:59;;;;;;;;;;;;;;;;;;5066918;28;20031;-68
2023/07/14 03:32:26;;;;;;;;;;;;;;;;;;5069361;28;19925;-68
2023/07/14 03:34:53;;;;;;;;;;;;;;;;;;5070697;28;19924;-69
2023/07/14 03:37:20;;;;;;;;;;;;;;;;;;5072484;28;19986;-69
2023/07/14 03:39:47;;;;;;;;;;;;;;;;;;5067040;28;19924;-69
2023/07/14 03:42:14;;;;;;;;;;;;;;;;;;5063931;28;20034;-69
2023/07/14 03:44:41;;;;;;;;;;;;;;;;;;5070624;28;20356;-69
2023/07/14 03:47:08;;;;;;;;;;;;;;;;;;5069207;28;19928;-71
2023/07/14 03:49:36;;;;;;;;;;;;;;;;;;5068940;28;20410;-71
2023/07/14 03:52:03;;;;;;;;;;;;;;;;;;5067624;28;19928;-71
2023/07/14 03:54:31;;;;;;;;;;;;;;;;;;5075016;28;19925;-71
2023/07/14 03:56:58;;;;;;;;;;;;;;;;;;5073010;28;20313;-71
2023/07/14 03:59:25;;;;;;;;;;;;;;;;;;5069267;28;19924;-70
2023/07/14 04:01:52;;;;;;;;;;;;;;;;;;5072558;28;19928;-70
2023/07/14 04:04:19;;;;;;;;;;;;;;;;;;5071724;28;19924;-70
2023/07/14 04:06:46;;;;;;;;;;;;;;;;;;5064954;28;19966;-69
2023/07/14 04:09:13;;;;;;;;;;;;;;;;;;5072774;28;19995;-70
2023/07/14 04:11:40;;;;;;;;;;;;;;;;;;5079345;28;19924;-71
2023/07/14 04:14:08;;;;;;;;;;;;;;;;;;5073175;28;20001;-71
2023/07/14 04:16:35;;;;;;;;;;;;;;;;;;5073810;28;19990;-71
2023/07/14 04:19:03;;;;;;;;;;;;;;;;;;5067000;28;20388;-71
2023/07/14 04:21:30;;;;;;;;;;;;;;;;;;5069592;28;20514;-70
2023/07/14 04:23:57;;;;;;;;;;;;;;;;;;5068827;28;20707;-70
2023/07/14 04:26:24;;;;;;;;;;;;;;;;;;5069104;28;20269;-71
2023/07/14 04:28:51;;;;;;;;;;;;;;;;;;5076588;28;20023;-70
2023/07/14 04:31:18;;;;;;;;;;;;;;;;;;5074117;28;19977;-70
2023/07/14 04:33:45;;;;;;;;;;;;;;;;;;5073582;28;20023;-70
2023/07/14 04:36:12;;;;;;;;;;;;;;;;;;5073870;28;20377;-71
2023/07/14 04:38:38;;;;;;;;;;;;;;;;;;5074365;28;19968;-71
2023/07/14 04:41:05;;;;;;;;;;;;;;;;;;5072988;28;20014;-71
2023/07/14 04:43:32;;;;;;;;;;;;;;;;;;5071847;28;20027;-71
2023/07/14 04:45:59;;;;;;;;;;;;;;;;;;5072420;28;19937;-72
2023/07/14 04:48:26;;;;;;;;;;;;;;;;;;5073625;28;19925;-70
2023/07/14 04:50:53;;;;;;;;;;;;;;;;;;5055251;28;19925;-70
2023/07/14 04:53:20;;;;;;;;;;;;;;;;;;5072837;28;19924;-70
2023/07/14 04:55:48;;;;;;;;;;;;;;;;;;5053955;28;20032;-70
2023/07/14 04:58:15;;;;;;;;;;;;;;;;;;5064561;28;20022;-71
2023/07/14 05:00:42;;;;;;;;;;;;;;;;;;5070420;28;19939;-69
2023/07/14 05:03:09;;;;;;;;;;;;;;;;;;5072267;28;19942;-70
2023/07/14 05:05:36;;;;;;;;;;;;;;;;;;5067043;28;19974;-69
2023/07/14 05:08:03;;;;;;;;;;;;;;;;;;5071395;28;20030;-75
2023/07/14 05:10:31;;;;;;;;;;;;;;;;;;5069128;28;19931;-70
2023/07/14 05:12:58;;;;;;;;;;;;;;;;;;5071917;28;20371;-71
2023/07/14 05:15:25;;;;;;;;;;;;;;;;;;5057210;28;19925;-75
2023/07/14 05:17:52;;;;;;;;;;;;;;;;;;5063456;28;19979;-72
2023/07/14 05:20:19;;;;;;;;;;;;;;;;;;5072235;28;19924;-72
2023/07/14 05:22:46;;;;;;;;;;;;;;;;;;5072879;28;19967;-72
2023/07/14 05:25:13;;;;;;;;;;;;;;;;;;5072956;28;20007;-72
2023/07/14 05:27:41;;;;;;;;;;;;;;;;;;5054493;28;20430;-73
2023/07/14 05:30:09;;;;;;;;;;;;;;;;;;5067227;28;19925;-72
2023/07/14 05:32:36;;;;;;;;;;;;;;;;;;5070447;28;19986;-70
2023/07/14 05:35:03;;;;;;;;;;;;;;;;;;5072343;28;20002;-72
2023/07/14 05:37:30;;;;;;;;;;;;;;;;;;5069735;28;19974;-73
2023/07/14 05:39:56;;;;;;;;;;;;;;;;;;5063122;28;19924;-72
2023/07/14 05:42:23;;;;;;;;;;;;;;;;;;5068274;28;20023;-72
2023/07/14 05:44:50;;;;;;;;;;;;;;;;;;5061602;28;19930;-72
2023/07/14 05:47:17;;;;;;;;;;;;;;;;;;5068130;28;20290;-72
2023/07/14 05:49:44;;;;;;;;;;;;;;;;;;5062598;28;19994;-72
2023/07/14 05:52:12;;;;;;;;;;;;;;;;;;5069710;28;19955;-72
2023/07/14 05:54:39;;;;;;;;;;;;;;;;;;5069425;28;19986;-72
2023/07/14 05:57:06;;;;;;;;;;;;;;;;;;5069643;28;19925;-73
2023/07/14 05:59:33;;;;;;;;;;;;;;;;;;5071230;28;19959;-73
2023/07/14 06:02:00;;;;;;;;;;;;;;;;;;5068726;28;20003;-72
2023/07/14 06:04:27;;;;;;;;;;;;;;;;;;5068529;28;19952;-71
2023/07/14 06:06:54;;;;;;;;;;;;;;;;;;5068588;28;20023;-72
2023/07/14 06:09:21;;;;;;;;;;;;;;;;;;5070982;28;19925;-71
2023/07/14 06:11:49;;;;;;;;;;;;;;;;;;5072010;28;19971;-73
2023/07/14 06:14:15;;;;;;;;;;;;;;;;;;5068567;28;19924;-73
2023/07/14 06:16:43;;;;;;;;;;;;;;;;;;5069433;28;20380;-73
2023/07/14 06:19:10;;;;;;;;;;;;;;;;;;5070426;28;19966;-71
2023/07/14 06:21:37;;;;;;;;;;;;;;;;;;5066210;28;19924;-72
2023/07/14 06:24:07;;;;;;;;;;;;;;;;;;5066948;28;19983;-71
2023/07/14 06:26:34;;;;;;;;;;;;;;;;;;5068164;28;20364;-71
2023/07/14 06:29:02;;;;;;;;;;;;;;;;;;5065102;28;20594;-71
2023/07/14 06:31:29;;;;;;;;;;;;;;;;;;5067799;28;19929;-72
2023/07/14 06:33:56;;;;;;;;;;;;;;;;;;5070747;28;20021;-72
2023/07/14 06:36:23;;;;;;;;;;;;;;;;;;5070409;28;19925;-72
2023/07/14 06:38:50;;;;;;;;;;;;;;;;;;5071660;28;20388;-72
2023/07/14 06:41:17;;;;;;;;;;;;;;;;;;5066172;28;20500;-72
2023/07/14 06:43:44;;;;;;;;;;;;;;;;;;5065146;28;19972;-72
2023/07/14 06:46:11;;;;;;;;;;;;;;;;;;5068649;28;19967;-72
2023/07/14 06:48:38;;;;;;;;;;;;;;;;;;5070140;28;20011;-72
2023/07/14 06:51:05;;;;;;;;;;;;;;;;;;5065836;28;19971;-72
2023/07/14 06:53:32;;;;;;;;;;;;;;;;;;5067036;28;20011;-73
2023/07/14 06:55:59;;;;;;;;;;;;;;;;;;5069336;28;20371;-72
2023/07/14 06:58:28;;;;;;;;;;;;;;;;;;5068060;28;21351;-72
2023/07/14 07:00:55;;;;;;;;;;;;;;;;;;5067940;28;19959;-72
2023/07/14 07:03:22;;;;;;;;;;;;;;;;;;5068033;28;19933;-72
2023/07/14 07:05:50;;;;;;;;;;;;;;;;;;5068792;28;19962;-72
2023/07/14 07:08:18;;;;;;;;;;;;;;;;;;5069729;28;19934;-72
2023/07/14 07:10:45;;;;;;;;;;;;;;;;;;5069859;28;20036;-71
2023/07/14 07:13:12;;;;;;;;;;;;;;;;;;5063336;28;20350;-73
2023/07/14 07:15:39;;;;;;;;;;;;;;;;;;5065619;28;19933;-72
2023/07/14 07:18:06;;;;;;;;;;;;;;;;;;5065678;28;20342;-73
2023/07/14 07:20:33;;;;;;;;;;;;;;;;;;5068742;28;19967;-73
2023/07/14 07:23:00;;;;;;;;;;;;;;;;;;5067511;28;20011;-72
2023/07/14 07:25:27;;;;;;;;;;;;;;;;;;5070708;28;20468;-74
2023/07/14 07:27:54;;;;;;;;;;;;;;;;;;5076905;28;20358;-74
2023/07/14 07:30:21;;;;;;;;;;;;;;;;;;5073126;28;20362;-75
2023/07/14 07:32:48;;;;;;;;;;;;;;;;;;5074771;28;19924;-74
2023/07/14 07:35:15;;;;;;;;;;;;;;;;;;5077477;28;19986;-73
2023/07/14 07:37:42;;;;;;;;;;;;;;;;;;5077030;28;20015;-73
2023/07/14 07:40:09;;;;;;;;;;;;;;;;;;5069620;28;20389;-73
2023/07/14 07:42:36;;;;;;;;;;;;;;;;;;5072688;28;20011;-73
2023/07/14 07:45:03;;;;;;;;;;;;;;;;;;5071247;28;19963;-73
2023/07/14 07:47:30;;;;;;;;;;;;;;;;;;5074137;28;20359;-74
2023/07/14 07:49:57;;;;;;;;;;;;;;;;;;5071035;28;19928;-74
2023/07/14 07:52:24;;;;;;;;;;;;;;;;;;5072185;28;19924;-74
2023/07/14 07:54:51;;;;;;;;;;;;;;;;;;5074509;28;20024;-75
2023/07/14 07:57:18;;;;;;;;;;;;;;;;;;5068672;28;19924;-74
2023/07/14 07:59:45;;;;;;;;;;;;;;;;;;5070947;28;19985;-73
2023/07/14 08:02:14;;;;;;;;;;;;;;;;;;5072920;28;20446;-74
2023/07/14 08:04:41;;;;;;;;;;;;;;;;;;5070409;28;19947;-74
2023/07/14 08:07:08;;;;;;;;;;;;;;;;;;5060628;28;19963;-73
2023/07/14 08:09:35;;;;;;;;;;;;;;;;;;5070539;28;19931;-74
2023/07/14 08:12:02;;;;;;;;;;;;;;;;;;5065454;28;19931;-75
2023/07/14 08:14:29;;;;;;;;;;;;;;;;;;5067192;28;19924;-73
2023/07/14 08:16:56;;;;;;;;;;;;;;;;;;5062721;28;19956;-73
2023/07/14 08:19:23;;;;;;;;;;;;;;;;;;5067512;28;19928;-73
2023/07/14 08:21:50;;;;;;;;;;;;;;;;;;5064520;28;19924;-74
2023/07/14 08:24:17;;;;;;;;;;;;;;;;;;5065096;28;20022;-74
2023/07/14 08:26:44;;;;;;;;;;;;;;;;;;5066214;28;20019;-74
2023/07/14 08:29:11;;;;;;;;;;;;;;;;;;5065502;28;19928;-74
2023/07/14 08:31:38;;;;;;;;;;;;;;;;;;5060646;28;20318;-74
2023/07/14 08:34:05;;;;;;;;;;;;;;;;;;5066233;28;20023;-73
2023/07/14 08:36:32;;;;;;;;;;;;;;;;;;5068089;28;20011;-74
2023/07/14 08:39:00;;;;;;;;;;;;;;;;;;5066990;28;19924;-73
2023/07/14 08:41:27;;;;;;;;;;;;;;;;;;5069799;28;20040;-74
2023/07/14 08:43:54;;;;;;;;;;;;;;;;;;5066889;28;19933;-74
2023/07/14 08:46:21;;;;;;;;;;;;;;;;;;5066880;28;20058;-74
2023/07/14 08:48:49;;;;;;;;;;;;;;;;;;5064589;28;19932;-73
2023/07/14 08:51:16;;;;;;;;;;;;;;;;;;5062889;28;20325;-74
2023/07/14 08:53:44;;;;;;;;;;;;;;;;;;5063513;28;20310;-75
2023/07/14 08:56:18;;;;;;;;;;;;;;;;;;5060201;28;19967;-74
2023/07/14 08:58:45;;;;;;;;;;;;;;;;;;5067867;28;20047;-74
2023/07/14 09:01:14;;;;;;;;;;;;;;;;;;5064145;28;19936;-74
2023/07/14 09:03:41;;;;;;;;;;;;;;;;;;5064509;28;19968;-74
2023/07/14 09:06:08;;;;;;;;;;;;;;;;;;5060991;28;19929;-75
2023/07/14 09:08:35;;;;;;;;;;;;;;;;;;5065489;28;19940;-73
2023/07/14 09:11:02;;;;;;;;;;;;;;;;;;5061712;28;20443;-73
2023/07/14 09:13:29;;;;;;;;;;;;;;;;;;5067637;28;19968;-73
2023/07/14 09:15:56;;;;;;;;;;;;;;;;;;5069590;28;20043;-73
2023/07/14 09:18:23;;;;;;;;;;;;;;;;;;5058613;28;20020;-73
2023/07/14 09:20:50;;;;;;;;;;;;;;;;;;5059766;28;19925;-73
2023/07/14 09:23:17;;;;;;;;;;;;;;;;;;5061676;28;19928;-73
2023/07/14 09:25:44;;;;;;;;;;;;;;;;;;5061450;28;19925;-74
2023/07/14 09:28:11;;;;;;;;;;;;;;;;;;5066334;28;20020;-73
2023/07/14 09:30:38;;;;;;;;;;;;;;;;;;5067076;28;19967;-73
2023/07/14 09:33:05;;;;;;;;;;;;;;;;;;5063783;28;19968;-74
2023/07/14 09:35:32;;;;;;;;;;;;;;;;;;5066591;28;19932;-73
2023/07/14 09:37:59;;;;;;;;;;;;;;;;;;5069890;28;20320;-73
2023/07/14 09:40:26;;;;;;;;;;;;;;;;;;5070624;28;19928;-73
2023/07/14 09:42:53;;;;;;;;;;;;;;;;;;5067739;28;19924;-72
2023/07/14 09:45:20;;;;;;;;;;;;;;;;;;5056392;28;20007;-72
2023/07/14 09:47:47;;;;;;;;;;;;;;;;;;5061999;28;19928;-71
2023/07/14 09:50:15;;;;;;;;;;;;;;;;;;5066915;28;19955;-71
2023/07/14 09:52:42;;;;;;;;;;;;;;;;;;5063982;28;19929;-73
2023/07/14 09:55:09;;;;;;;;;;;;;;;;;;5061380;28;20020;-72
2023/07/14 09:57:36;;;;;;;;;;;;;;;;;;5069714;28;19983;-72
2023/07/14 10:00:10;;;;;;;;;;;;;;;;;;5067082;28;20011;-72
2023/07/14 10:02:37;;;;;;;;;;;;;;;;;;5065507;28;19924;-72
2023/07/14 10:05:04;;;;;;;;;;;;;;;;;;5066154;28;19925;-74
2023/07/14 10:07:31;;;;;;;;;;;;;;;;;;5067430;28;19974;-73
2023/07/14 10:09:58;;;;;;;;;;;;;;;;;;5065386;28;20452;-72
2023/07/14 10:12:25;;;;;;;;;;;;;;;;;;5067935;28;20011;-75
2023/07/14 10:14:53;;;;;;;;;;;;;;;;;;5069978;28;19974;-73
2023/07/14 10:17:20;;;;;;;;;;;;;;;;;;5069043;28;19970;-73
2023/07/14 10:19:47;;;;;;;;;;;;;;;;;;5060342;28;19924;-74
2023/07/14 10:22:15;;;;;;;;;;;;;;;;;;5061827;28;20300;-74
2023/07/14 10:24:42;;;;;;;;;;;;;;;;;;5062953;28;19964;-73
2023/07/14 10:27:09;;;;;;;;;;;;;;;;;;5064168;28;20004;-73
2023/07/14 10:29:36;;;;;;;;;;;;;;;;;;5060950;28;19924;-73
2023/07/14 10:32:03;;;;;;;;;;;;;;;;;;5059612;28;20324;-73
2023/07/14 10:34:30;;;;;;;;;;;;;;;;;;5062854;28;19925;-73
2023/07/14 10:36:57;;;;;;;;;;;;;;;;;;5063909;28;20387;-73
2023/07/14 10:39:24;;;;;;;;;;;;;;;;;;5062767;28;19929;-73
2023/07/14 10:41:51;;;;;;;;;;;;;;;;;;5062560;28;19974;-73
2023/07/14 10:44:18;;;;;;;;;;;;;;;;;;5061256;28;20020;-73
2023/07/14 10:46:45;;;;;;;;;;;;;;;;;;5070700;28;20003;-73
2023/07/14 10:49:12;;;;;;;;;;;;;;;;;;5059011;28;19925;-74
2023/07/14 10:51:40;;;;;;;;;;;;;;;;;;5053822;28;19932;-73
2023/07/14 10:54:07;;;;;;;;;;;;;;;;;;5063073;28;19933;-73
2023/07/14 10:56:34;;;;;;;;;;;;;;;;;;5063650;28;20057;-73
2023/07/14 10:59:01;;;;;;;;;;;;;;;;;;5055862;28;20007;-73
2023/07/14 11:01:29;;;;;;;;;;;;;;;;;;5056967;28;20027;-74
2023/07/14 11:03:56;;;;;;;;;;;;;;;;;;5065792;28;19964;-73
2023/07/14 11:06:23;;;;;;;;;;;;;;;;;;5068421;28;19924;-72
2023/07/14 11:08:50;;;;;;;;;;;;;;;;;;5069423;28;19924;-73
2023/07/14 11:11:17;;;;;;;;;;;;;;;;;;5070098;28;20015;-72
2023/07/14 11:13:44;;;;;;;;;;;;;;;;;;5069587;28;19930;-72
2023/07/14 11:16:11;;;;;;;;;;;;;;;;;;5073086;28;19925;-72
2023/07/14 11:18:38;;;;;;;;;;;;;;;;;;5061162;28;19977;-72
2023/07/14 11:21:05;;;;;;;;;;;;;;;;;;5069090;28;19970;-73
2023/07/14 11:23:32;;;;;;;;;;;;;;;;;;5061660;28;19960;-74
2023/07/14 11:25:59;;;;;;;;;;;;;;;;;;5061822;28;19985;-73
2023/07/14 11:28:27;;;;;;;;;;;;;;;;;;5055897;28;20004;-73
2023/07/14 11:30:54;;;;;;;;;;;;;;;;;;5075790;28;19928;-71
2023/07/14 11:33:21;;;;;;;;;;;;;;;;;;5065548;28;19924;-73
2023/07/14 11:35:48;;;;;;;;;;;;;;;;;;5066428;28;19935;-73
2023/07/14 11:38:15;;;;;;;;;;;;;;;;;;5063522;28;19971;-70
2023/07/14 11:40:43;;;;;;;;;;;;;;;;;;5076065;28;20012;-73
2023/07/14 11:43:13;;;;;;;;;;;;;;;;;;5056543;28;19925;-74
2023/07/14 11:45:40;;;;;;;;;;;;;;;;;;5070207;28;20070;-69
2023/07/14 11:48:07;;;;;;;;;;;;;;;;;;5065221;28;19962;-73
2023/07/14 11:50:34;;;;;;;;;;;;;;;;;;5066635;28;20008;-71
2023/07/14 11:53:01;;;;;;;;;;;;;;;;;;5056967;28;20472;-71
2023/07/14 11:55:28;;;;;;;;;;;;;;;;;;5064639;28;19928;-71
2023/07/14 11:57:57;;;;;;;;;;;;;;;;;;5066518;28;19978;-71
2023/07/14 12:00:24;;;;;;;;;;;;;;;;;;5081911;28;20011;-73
2023/07/14 12:02:51;;;;;;;;;;;;;;;;;;5091007;28;19963;-72
2023/07/14 12:05:18;;;;;;;;;;;;;;;;;;5065397;28;19960;-74
2023/07/14 12:07:45;;;;;;;;;;;;;;;;;;5073265;28;19924;-73
2023/07/14 12:10:12;;;;;;;;;;;;;;;;;;5064682;28;19925;-73
2023/07/14 12:12:39;;;;;;;;;;;;;;;;;;5063348;28;20027;-73
2023/07/14 12:15:06;;;;;;;;;;;;;;;;;;5067498;28;20359;-72
2023/07/14 12:17:32;;;;;;;;;;;;;;;;;;5073734;28;19986;-73
2023/07/14 12:19:59;;;;;;;;;;;;;;;;;;5068921;28;19932;-72
2023/07/14 12:22:26;;;;;;;;;;;;;;;;;;5070866;28;20028;-72
2023/07/14 12:24:53;;;;;;;;;;;;;;;;;;5071671;28;19928;-73
2023/07/14 12:27:21;;;;;;;;;;;;;;;;;;5069376;28;19924;-72
2023/07/14 12:29:48;;;;;;;;;;;;;;;;;;5067656;28;20007;-72
2023/07/14 12:32:15;;;;;;;;;;;;;;;;;;5066803;28;20399;-72
2023/07/14 12:34:42;;;;;;;;;;;;;;;;;;5066589;28;19971;-72
2023/07/14 12:37:09;;;;;;;;;;;;;;;;;;5063118;28;20378;-72
2023/07/14 12:39:36;;;;;;;;;;;;;;;;;;5062342;28;20601;-72
2023/07/14 12:42:05;;;;;;;;;;;;;;;;;;5063303;28;19929;-72
2023/07/14 12:44:32;;;;;;;;;;;;;;;;;;5057669;28;19936;-72
2023/07/14 12:46:59;;;;;;;;;;;;;;;;;;5063626;28;19928;-72
2023/07/14 12:49:26;;;;;;;;;;;;;;;;;;5064214;28;19924;-72
2023/07/14 12:51:53;;;;;;;;;;;;;;;;;;5070698;28;19932;-72
2023/07/14 12:54:20;;;;;;;;;;;;;;;;;;5069609;28;20473;-72
2023/07/14 12:56:47;;;;;;;;;;;;;;;;;;5064911;28;19932;-72
2023/07/14 12:59:14;;;;;;;;;;;;;;;;;;5060983;28;20122;-72
2023/07/14 13:01:41;;;;;;;;;;;;;;;;;;5064925;28;19979;-72
2023/07/14 13:04:08;;;;;;;;;;;;;;;;;;5063046;28;20351;-71
2023/07/14 13:06:35;;;;;;;;;;;;;;;;;;5064942;28;19924;-72
2023/07/14 13:09:02;;;;;;;;;;;;;;;;;;5070774;28;19983;-72
2023/07/14 13:11:29;;;;;;;;;;;;;;;;;;5061092;28;20374;-73
2023/07/14 13:13:56;;;;;;;;;;;;;;;;;;5065456;28;20393;-73
2023/07/14 13:16:24;;;;;;;;;;;;;;;;;;5056398;28;19963;-73
2023/07/14 13:18:51;;;;;;;;;;;;;;;;;;5071232;28;19931;-73
2023/07/14 13:21:18;;;;;;;;;;;;;;;;;;5068554;28;19947;-73
2023/07/14 13:23:45;;;;;;;;;;;;;;;;;;5066682;28;20039;-72
2023/07/14 13:26:12;;;;;;;;;;;;;;;;;;5069085;28;20015;-72
2023/07/14 13:28:39;;;;;;;;;;;;;;;;;;5064181;28;20031;-73
2023/07/14 13:31:06;;;;;;;;;;;;;;;;;;5067258;28;19932;-72
2023/07/14 13:33:34;;;;;;;;;;;;;;;;;;5065325;28;19925;-74
2023/07/14 13:36:01;;;;;;;;;;;;;;;;;;5058976;28;20725;-73
2023/07/14 13:38:28;;;;;;;;;;;;;;;;;;5068451;28;19924;-72
2023/07/14 13:40:58;;;;;;;;;;;;;;;;;;5062733;28;19939;-73
2023/07/14 13:43:25;;;;;;;;;;;;;;;;;;5071354;28;19924;-73
2023/07/14 13:45:52;;;;;;;;;;;;;;;;;;5066407;28;19928;-73
2023/07/14 13:48:19;;;;;;;;;;;;;;;;;;5072536;28;20011;-72
2023/07/14 13:50:47;;;;;;;;;;;;;;;;;;5070979;28;20299;-72
2023/07/14 13:53:14;;;;;;;;;;;;;;;;;;5070815;28;19925;-73
2023/07/14 13:55:42;;;;;;;;;;;;;;;;;;5070356;28;19928;-72
2023/07/14 13:58:08;;;;;;;;;;;;;;;;;;5071548;28;19971;-74
2023/07/14 14:00:36;;;;;;;;;;;;;;;;;;5071558;28;20015;-71
2023/07/14 14:03:04;;;;;;;;;;;;;;;;;;5069635;28;19940;-72
2023/07/14 14:05:31;;;;;;;;;;;;;;;;;;5065457;28;20011;-71
2023/07/14 14:07:58;;;;;;;;;;;;;;;;;;5055383;28;19928;-71
2023/07/14 14:10:25;;;;;;;;;;;;;;;;;;5069713;28;19939;-73
2023/07/14 14:12:53;;;;;;;;;;;;;;;;;;5071738;28;19970;-70
2023/07/14 14:15:20;;;;;;;;;;;;;;;;;;5064642;28;20015;-70
2023/07/14 14:17:47;;;;;;;;;;;;;;;;;;5068416;28;20019;-72
2023/07/14 14:20:14;;;;;;;;;;;;;;;;;;5068864;28;19989;-72
2023/07/14 14:22:41;;;;;;;;;;;;;;;;;;5059998;28;19975;-71
2023/07/14 14:25:08;;;;;;;;;;;;;;;;;;5067667;28;20019;-71
2023/07/14 14:27:35;;;;;;;;;;;;;;;;;;5063530;28;20027;-71
2023/07/14 14:30:02;;;;;;;;;;;;;;;;;;5059266;28;20383;-71
2023/07/14 14:32:32;;;;;;;;;;;;;;;;;;5059992;28;20020;-71
2023/07/14 14:34:59;;;;;;;;;;;;;;;;;;5067634;28;20200;-71
2023/07/14 14:37:26;;;;;;;;;;;;;;;;;;5067373;28;19930;-71
2023/07/14 14:39:53;;;;;;;;;;;;;;;;;;5068226;28;20001;-71
2023/07/14 14:42:20;;;;;;;;;;;;;;;;;;5064443;28;20456;-70
2023/07/14 14:44:47;;;;;;;;;;;;;;;;;;5065977;28;19979;-70
2023/07/14 14:47:14;;;;;;;;;;;;;;;;;;5058309;28;20020;-71
2023/07/14 14:49:41;;;;;;;;;;;;;;;;;;5069225;28;19983;-71
2023/07/14 14:52:08;;;;;;;;;;;;;;;;;;5065417;28;20464;-70
2023/07/14 14:54:36;;;;;;;;;;;;;;;;;;5068235;28;20038;-71
2023/07/14 14:57:03;;;;;;;;;;;;;;;;;;5071323;28;19925;-70
2023/07/14 14:59:31;;;;;;;;;;;;;;;;;;5068911;28;19979;-71
2023/07/14 15:01:58;;;;;;;;;;;;;;;;;;5069110;28;19925;-70
2023/07/14 15:04:27;;;;;;;;;;;;;;;;;;5057752;28;20036;-71
2023/07/14 15:06:54;;;;;;;;;;;;;;;;;;5062758;28;19925;-70
2023/07/14 15:09:21;;;;;;;;;;;;;;;;;;5070019;28;19960;-70
2023/07/14 15:11:48;;;;;;;;;;;;;;;;;;5068040;28;19928;-70
2023/07/14 15:14:15;;;;;;;;;;;;;;;;;;5064738;28;19935;-70
2023/07/14 15:16:43;;;;;;;;;;;;;;;;;;5061942;28;20382;-70
2023/07/14 15:19:12;;;;;;;;;;;;;;;;;;5068898;28;19967;-71
2023/07/14 15:21:39;;;;;;;;;;;;;;;;;;5057510;28;19932;-71
2023/07/14 15:24:07;;;;;;;;;;;;;;;;;;5066023;28;19925;-70
2023/07/14 15:26:34;;;;;;;;;;;;;;;;;;5065181;28;20433;-71
2023/07/14 15:29:01;;;;;;;;;;;;;;;;;;5066614;28;20385;-71
2023/07/14 15:31:28;;;;;;;;;;;;;;;;;;5077895;28;19924;-70
2023/07/14 15:33:55;;;;;;;;;;;;;;;;;;5066969;28;21826;-70
2023/07/14 15:36:22;;;;;;;;;;;;;;;;;;5064868;28;20041;-73
2023/07/14 15:38:51;;;;;;;;;;;;;;;;;;5064044;28;19924;-74
2023/07/14 15:41:18;;;;;;;;;;;;;;;;;;5064804;28;19968;-75
2023/07/14 15:43:47;;;;;;;;;;;;;;;;;;5069578;28;20304;-74
2023/07/14 15:46:14;;;;;;;;;;;;;;;;;;5069118;28;19975;-74
2023/07/14 15:48:41;;;;;;;;;;;;;;;;;;5077137;28;19963;-74
2023/07/14 15:51:08;;;;;;;;;;;;;;;;;;5067521;28;19924;-74
2023/07/14 15:53:35;;;;;;;;;;;;;;;;;;5068004;28;20041;-74
2023/07/14 15:56:03;;;;;;;;;;;;;;;;;;5060989;28;20196;-74
2023/07/14 15:58:30;;;;;;;;;;;;;;;;;;5065770;28;20514;-74
2023/07/14 16:00:58;;;;;;;;;;;;;;;;;;5071940;28;19964;-74
2023/07/14 16:03:25;;;;;;;;;;;;;;;;;;5069710;28;19964;-75
2023/07/14 16:05:52;;;;;;;;;;;;;;;;;;5066066;28;20026;-73
2023/07/14 16:08:19;;;;;;;;;;;;;;;;;;5068137;28;20024;-72
2023/07/14 16:10:46;;;;;;;;;;;;;;;;;;5058881;28;19929;-72
2023/07/14 16:13:14;;;;;;;;;;;;;;;;;;5069283;28;19924;-72
2023/07/14 16:15:41;;;;;;;;;;;;;;;;;;5067264;28;19924;-71
2023/07/14 16:18:08;;;;;;;;;;;;;;;;;;5062656;28;19943;-71
2023/07/14 16:20:35;;;;;;;;;;;;;;;;;;5070691;28;19968;-72
2023/07/14 16:23:03;;;;;;;;;;;;;;;;;;5066581;28;20405;-71
2023/07/14 16:25:32;;;;;;;;;;;;;;;;;;5064555;28;20545;-71
2023/07/14 16:27:59;;;;;;;;;;;;;;;;;;5062006;28;19939;-73
2023/07/14 16:30:27;;;;;;;;;;;;;;;;;;5066066;28;19936;-73
2023/07/14 16:32:54;;;;;;;;;;;;;;;;;;5073636;28;19924;-71
2023/07/14 16:35:21;;;;;;;;;;;;;;;;;;5065236;28;20061;-71
2023/07/14 16:37:48;;;;;;;;;;;;;;;;;;5066930;28;20019;-71
2023/07/14 16:40:17;;;;;;;;;;;;;;;;;;5067202;28;19944;-72
2023/07/14 16:42:44;;;;;;;;;;;;;;;;;;5079475;28;19970;-72
2023/07/14 16:45:11;;;;;;;;;;;;;;;;;;5079852;28;20017;-71